createdAt,value
2023-02-22T00:13:22.907Z,21.27
2023-02-22T00:28:25.829Z,25.37
2023-02-22T00:43:28.571Z,24.40
2023-02-22T00:58:32.057Z,23.00
2023-02-22T01:13:34.986Z,20.80
2023-02-22T01:28:38.497Z,19.30
2023-02-22T01:43:41.236Z,21.63
2023-02-22T01:58:48.722Z,15.70
2023-02-22T02:13:57.127Z,16.17
2023-02-22T02:29:12.052Z,17.10
2023-02-22T02:44:17.946Z,14.20
2023-02-22T02:59:39.123Z,12.17
2023-02-22T03:15:03.210Z,13.93
2023-02-22T03:30:12.531Z,11.53
2023-02-22T03:45:20.041Z,11.57
2023-02-22T04:00:26.959Z,10.00
2023-02-22T04:15:29.843Z,9.77
2023-02-22T04:30:39.459Z,11.07
2023-02-22T04:45:46.471Z,10.40
2023-02-22T05:00:49.391Z,10.00
2023-02-22T05:15:52.507Z,8.57
2023-02-22T05:30:55.038Z,8.00
2023-02-22T05:45:57.699Z,8.90
2023-02-22T06:01:02.724Z,9.00
2023-02-22T06:16:07.165Z,9.10
2023-02-22T06:31:09.878Z,9.10
2023-02-22T06:46:13.035Z,9.07
2023-02-22T07:01:16.676Z,9.70
2023-02-22T07:16:19.448Z,11.03
2023-02-22T07:31:22.342Z,9.97
2023-02-22T07:46:24.884Z,10.50
2023-02-22T08:01:27.997Z,10.77
2023-02-22T08:16:30.792Z,11.33
2023-02-22T08:31:34.604Z,11.67
2023-02-22T08:46:37.375Z,10.33
2023-02-22T09:01:40.393Z,10.67
2023-02-22T09:16:45.442Z,11.33
2023-02-22T09:31:48.756Z,11.30
2023-02-22T09:46:54.387Z,11.10
2023-02-22T10:02:31.540Z,10.40
2023-02-22T10:17:50.143Z,8.80
2023-02-22T10:33:10.736Z,9.27
2023-02-22T10:48:19.072Z,8.67
2023-02-22T11:03:24.136Z,9.17
2023-02-22T11:18:35.205Z,6.80
2023-02-22T11:33:38.752Z,7.70
2023-02-22T12:06:24.772Z,8.37
2023-02-22T12:21:29.827Z,7.73
2023-02-22T12:36:53.336Z,7.90
2023-02-22T12:52:21.310Z,7.47
2023-02-22T13:07:24.537Z,9.40
2023-02-22T13:22:35.119Z,8.63
2023-02-22T13:37:56.085Z,8.87
2023-02-22T13:53:00.714Z,9.10
2023-02-22T14:25:44.506Z,9.43
2023-02-22T14:40:49.489Z,8.23
2023-02-22T14:56:23.161Z,8.40
2023-02-22T15:11:32.395Z,7.93
2023-02-22T15:26:59.067Z,8.73
2023-02-22T15:42:19.383Z,8.93
2023-02-22T15:57:25.379Z,10.70
2023-02-22T16:12:28.800Z,9.13
2023-02-22T16:27:47.296Z,9.77
2023-02-22T16:42:51.599Z,12.23
2023-02-22T16:57:57.183Z,11.03
2023-02-22T17:13:16.352Z,14.17
2023-02-22T17:28:25.292Z,15.40
2023-02-22T17:43:28.680Z,16.10
2023-02-22T17:58:31.369Z,17.57
2023-02-22T18:13:34.133Z,21.00
2023-02-22T18:28:37.393Z,18.80
2023-02-22T18:43:41.127Z,18.73
2023-02-22T18:58:44.031Z,19.40
2023-02-22T19:13:52.021Z,19.93
2023-02-22T19:28:57.158Z,19.60
2023-02-22T19:44:01.287Z,19.83
2023-02-22T19:59:12.942Z,21.53
2023-02-22T20:14:21.215Z,21.73
2023-02-22T20:29:29.762Z,21.63
2023-02-22T20:44:32.778Z,22.17
2023-02-22T20:59:35.425Z,25.00
2023-02-22T21:14:38.105Z,24.87
2023-02-22T21:29:40.934Z,24.50
2023-02-22T21:44:43.657Z,22.63
2023-02-22T21:59:47.919Z,22.43
2023-02-22T22:14:50.931Z,24.07
2023-02-22T22:29:57.152Z,23.20
2023-02-22T22:44:59.721Z,24.47
2023-02-22T23:00:22.173Z,22.43
2023-02-22T23:15:25.663Z,22.67
2023-02-22T23:30:28.334Z,22.83
2023-02-22T23:45:34.076Z,23.60
